createdAt,value
2023-11-15T00:00:21.448Z,99.99
2023-11-15T00:01:23.388Z,99.99
2023-11-15T00:02:22.436Z,99.99
2023-11-15T00:03:22.649Z,99.99
2023-11-15T00:04:22.394Z,99.99
2023-11-15T00:05:22.399Z,99.99
2023-11-15T00:06:22.439Z,99.99
2023-11-15T00:07:22.331Z,99.99
2023-11-15T00:08:22.356Z,99.99
2023-11-15T00:09:22.334Z,99.99
2023-11-15T00:10:22.294Z,99.99
2023-11-15T00:11:22.344Z,99.99
2023-11-15T00:12:22.272Z,99.99
2023-11-15T00:13:22.253Z,99.99
2023-11-15T00:14:22.293Z,99.99
2023-11-15T00:15:22.244Z,99.99
2023-11-15T00:16:22.354Z,99.99
2023-11-15T00:17:22.330Z,99.99
2023-11-15T00:18:22.266Z,99.99
2023-11-15T00:19:22.205Z,99.99
2023-11-15T00:20:22.194Z,99.99
2023-11-15T00:21:22.150Z,99.99
2023-11-15T00:22:22.149Z,99.99
2023-11-15T00:23:22.424Z,99.99
2023-11-15T00:24:22.121Z,99.99
2023-11-15T00:25:22.100Z,99.99
2023-11-15T00:26:22.350Z,99.99
2023-11-15T00:27:22.085Z,99.99
2023-11-15T00:28:22.067Z,99.99
2023-11-15T00:29:22.100Z,99.99
2023-11-15T00:30:22.047Z,99.99
2023-11-15T00:31:22.029Z,99.99
2023-11-15T00:32:22.106Z,99.99
2023-11-15T00:33:22.058Z,99.99
2023-11-15T00:34:22.022Z,99.99
2023-11-15T00:35:22.016Z,99.99
2023-11-15T00:36:22.026Z,99.99
2023-11-15T00:37:21.954Z,99.99
2023-11-15T00:38:21.975Z,99.99
2023-11-15T00:39:21.948Z,99.99
2023-11-15T00:40:21.932Z,99.99
2023-11-15T00:41:21.924Z,99.99
2023-11-15T00:42:21.917Z,99.99
2023-11-15T00:43:21.873Z,99.99
2023-11-15T00:44:21.933Z,99.99
2023-11-15T00:45:21.844Z,99.99
2023-11-15T00:46:21.868Z,99.99
2023-11-15T00:47:21.883Z,99.99
2023-11-15T00:48:21.828Z,99.99
2023-11-15T00:49:21.812Z,99.99
2023-11-15T00:50:21.825Z,99.99
2023-11-15T00:51:21.789Z,99.99
2023-11-15T00:52:21.780Z,99.99
2023-11-15T00:53:21.793Z,99.99
2023-11-15T00:54:21.741Z,99.99
2023-11-15T00:55:21.744Z,99.99
2023-11-15T00:56:21.764Z,99.99
2023-11-15T00:57:21.701Z,99.99
2023-11-15T00:58:21.715Z,99.99
2023-11-15T00:59:21.708Z,99.99
2023-11-15T01:00:21.664Z,99.99
2023-11-15T01:01:21.650Z,99.99
2023-11-15T01:02:21.719Z,99.99
2023-11-15T01:03:21.726Z,99.99
2023-11-15T01:04:21.690Z,99.99
2023-11-15T01:05:21.638Z,99.99
2023-11-15T01:06:21.581Z,99.99
2023-11-15T01:07:21.580Z,99.99
2023-11-15T01:08:21.657Z,99.99
2023-11-15T01:09:21.563Z,99.99
2023-11-15T01:10:21.532Z,99.99
2023-11-15T01:11:21.590Z,99.99
2023-11-15T01:12:21.571Z,99.99
2023-11-15T01:13:21.512Z,99.99
2023-11-15T01:14:21.561Z,99.99
2023-11-15T01:15:21.474Z,99.99
2023-11-15T01:16:22.393Z,99.99
2023-11-15T01:17:22.183Z,99.99
2023-11-15T01:18:21.510Z,99.99
2023-11-15T01:41:28.441Z,99.99
2023-11-15T01:42:30.152Z,99.99
2023-11-15T01:43:29.618Z,99.99
2023-11-15T01:44:30.184Z,99.99
2023-11-15T01:45:36.540Z,99.99
2023-11-15T01:46:29.456Z,99.99
2023-11-15T01:47:29.592Z,99.99
2023-11-15T01:48:58.671Z,99.99
2023-11-15T01:49:29.554Z,99.99
2023-11-15T01:50:41.601Z,99.99
2023-11-15T02:18:16.990Z,99.99
2023-11-15T02:19:17.754Z,99.99
2023-11-15T02:20:17.892Z,99.99
2023-11-15T02:22:15.223Z,99.99
2023-11-15T02:22:20.675Z,99.99
2023-11-15T02:33:18.585Z,99.99
2023-11-15T02:33:24.145Z,99.99
2023-11-15T02:34:24.053Z,99.99
2023-11-15T02:35:24.087Z,99.99
2023-11-15T02:36:24.056Z,99.99
2023-11-15T02:37:24.690Z,99.99
2023-11-15T02:38:24.250Z,99.99
2023-11-15T02:39:24.246Z,99.99
2023-11-15T02:40:27.372Z,99.99
2023-11-15T02:41:23.987Z,99.99
2023-11-15T02:42:24.128Z,99.99
2023-11-15T02:43:36.264Z,99.99
2023-11-15T02:44:38.429Z,99.99
2023-11-15T02:45:39.913Z,99.99
2023-11-15T03:08:02.048Z,99.99
2023-11-15T03:09:03.052Z,99.99
2023-11-15T03:10:31.856Z,99.99
2023-11-15T03:15:48.822Z,99.99
2023-11-15T03:16:49.750Z,99.99
2023-11-15T03:17:49.991Z,99.99
2023-11-15T03:18:49.628Z,99.99
2023-11-15T03:19:50.789Z,99.99
2023-11-15T03:32:31.613Z,99.99
2023-11-15T03:33:21.501Z,99.99
2023-11-15T03:34:21.385Z,99.99
2023-11-15T03:35:21.333Z,99.99
2023-11-15T03:41:35.600Z,99.99
2023-11-15T03:42:08.178Z,99.99
2023-11-15T03:43:08.086Z,99.99
2023-11-15T03:44:08.033Z,99.84
2023-11-15T03:45:08.080Z,99.43
2023-11-15T03:46:17.959Z,99.74
2023-11-15T03:47:08.658Z,99.99
2023-11-15T04:23:23.447Z,99.99
2023-11-15T04:23:56.380Z,99.99
2023-11-15T04:25:00.119Z,99.99
2023-11-15T04:25:55.397Z,99.99
2023-11-15T04:26:55.788Z,99.99
2023-11-15T04:27:55.488Z,99.99
2023-11-15T04:28:55.122Z,99.99
2023-11-15T04:30:00.106Z,99.99
2023-11-15T04:30:55.076Z,99.99
2023-11-15T04:31:55.411Z,99.99
2023-11-15T04:32:55.123Z,99.99
2023-11-15T04:33:55.283Z,99.77
2023-11-15T04:34:55.044Z,99.99
2023-11-15T04:35:55.113Z,99.77
2023-11-15T04:36:55.016Z,99.77
2023-11-15T04:37:55.007Z,99.87
2023-11-15T04:38:55.210Z,99.87
2023-11-15T04:39:54.974Z,99.98
2023-11-15T04:40:54.948Z,99.99
2023-11-15T04:41:55.004Z,99.98
2023-11-15T04:42:54.941Z,99.87
2023-11-15T04:43:54.915Z,99.82
2023-11-15T04:44:54.949Z,99.77
2023-11-15T04:45:54.944Z,99.66
2023-11-15T04:46:54.885Z,99.26
2023-11-15T04:47:54.967Z,99.46
2023-11-15T04:48:54.868Z,99.36
2023-11-15T04:49:54.882Z,99.26
2023-11-15T04:50:54.887Z,99.36
2023-11-15T04:51:54.849Z,99.36
2023-11-15T04:52:58.359Z,99.26
2023-11-15T04:53:54.856Z,99.56
2023-11-15T04:54:54.796Z,99.36
2023-11-15T04:55:54.768Z,99.26
2023-11-15T04:56:54.832Z,99.15
2023-11-15T04:57:54.781Z,99.36
2023-11-15T04:58:54.742Z,99.05
2023-11-15T04:59:54.753Z,98.95
2023-11-15T05:00:54.708Z,99.15
2023-11-15T05:01:54.687Z,99.26
2023-11-15T05:02:54.784Z,99.05
2023-11-15T05:03:54.815Z,98.95
2023-11-15T05:04:54.736Z,99.05
2023-11-15T05:05:54.676Z,99.26
2023-11-15T05:06:55.100Z,99.36
2023-11-15T05:07:54.624Z,99.77
2023-11-15T05:08:54.626Z,99.82
2023-11-15T05:09:54.615Z,99.26
2023-11-15T05:10:54.605Z,99.05
2023-11-15T05:11:54.599Z,99.15
2023-11-15T05:12:54.572Z,99.26
2023-11-15T05:13:54.800Z,99.15
2023-11-15T05:14:54.548Z,99.46
2023-11-15T05:15:54.565Z,99.61
2023-11-15T05:16:54.516Z,99.99
2023-11-15T05:17:54.562Z,99.99
2023-11-15T05:18:54.659Z,99.99
2023-11-15T05:19:54.471Z,99.99
2023-11-15T05:20:56.846Z,99.99
2023-11-15T05:21:54.668Z,99.99
2023-11-15T05:22:54.478Z,99.99
2023-11-15T05:23:55.283Z,99.99
2023-11-15T05:25:16.827Z,99.99
2023-11-15T05:29:27.319Z,99.99
2023-11-15T05:48:41.320Z,99.91
2023-11-15T05:48:46.850Z,99.41
2023-11-15T05:50:02.256Z,99.41
2023-11-15T05:50:46.769Z,99.30
2023-11-15T05:51:46.995Z,99.30
2023-11-15T05:52:47.746Z,99.51
2023-11-15T05:54:13.545Z,99.82
2023-11-15T05:54:46.894Z,99.99
2023-11-15T05:55:46.667Z,99.91
2023-11-15T05:56:47.310Z,99.82
2023-11-15T05:57:49.386Z,99.82
2023-11-15T05:58:46.650Z,99.51
2023-11-15T05:59:46.671Z,99.61
2023-11-15T06:00:46.610Z,99.91
2023-11-15T06:01:46.620Z,99.99
2023-11-15T06:02:46.633Z,99.99
2023-11-15T06:03:46.869Z,99.91
2023-11-15T06:04:46.555Z,99.91
2023-11-15T06:05:46.564Z,99.99
2023-11-15T06:06:46.779Z,99.82
2023-11-15T06:07:46.516Z,99.82
2023-11-15T06:08:46.543Z,99.71
2023-11-15T06:09:46.494Z,99.82
2023-11-15T06:10:47.096Z,99.91
2023-11-15T06:11:47.187Z,99.99
2023-11-15T06:12:49.567Z,99.99
2023-11-15T06:13:46.451Z,99.99
2023-11-15T06:14:46.419Z,99.91
2023-11-15T06:15:46.377Z,99.51
2023-11-15T06:16:48.268Z,99.61
2023-11-15T06:17:46.371Z,99.71
2023-11-15T06:18:46.389Z,99.61
2023-11-15T06:19:52.049Z,99.41
2023-11-15T06:20:46.339Z,99.61
2023-11-15T06:21:46.275Z,99.71
2023-11-15T06:22:46.275Z,99.71
2023-11-15T06:23:46.314Z,99.82
2023-11-15T06:24:46.248Z,99.71
2023-11-15T06:25:46.375Z,99.41
2023-11-15T06:26:46.259Z,98.99
2023-11-15T06:27:46.193Z,98.99
2023-11-15T06:28:46.239Z,98.90
2023-11-15T06:29:46.451Z,99.10
2023-11-15T06:30:46.258Z,98.90
2023-11-15T06:31:46.150Z,98.90
2023-11-15T06:32:46.557Z,99.30
2023-11-15T06:33:46.215Z,99.55
2023-11-15T06:34:46.129Z,99.76
2023-11-15T06:35:46.278Z,99.96
2023-11-15T06:36:46.080Z,99.99
2023-11-15T06:37:46.090Z,99.99
2023-11-15T06:38:46.074Z,99.99
2023-11-15T06:39:46.076Z,99.96
2023-11-15T06:40:46.063Z,99.99
2023-11-15T06:41:46.040Z,99.96
2023-11-15T06:42:46.023Z,99.99
2023-11-15T06:43:46.018Z,99.99
2023-11-15T06:44:46.058Z,99.99
2023-11-15T06:45:45.982Z,99.99
2023-11-15T06:46:46.016Z,99.99
2023-11-15T06:47:46.031Z,99.99
2023-11-15T06:48:46.011Z,99.99
2023-11-15T06:49:45.921Z,99.99
2023-11-15T06:50:45.962Z,99.99
2023-11-15T06:51:45.897Z,99.99
2023-11-15T06:52:45.901Z,99.99
2023-11-15T06:53:45.972Z,99.99
2023-11-15T06:54:45.868Z,99.99
2023-11-15T06:55:46.020Z,99.99
2023-11-15T06:56:45.919Z,99.55
2023-11-15T06:57:45.833Z,99.35
2023-11-15T06:58:45.898Z,99.35
2023-11-15T06:59:45.852Z,99.04
2023-11-15T07:00:45.816Z,98.74
2023-11-15T07:01:45.775Z,98.74
2023-11-15T07:02:45.828Z,98.63
2023-11-15T07:05:19.242Z,98.53
2023-11-15T07:05:26.555Z,98.74
2023-11-15T07:06:24.565Z,98.53
2023-11-15T07:07:24.578Z,97.91
2023-11-15T07:08:24.564Z,98.02
2023-11-15T07:09:24.548Z,98.02
2023-11-15T07:10:24.522Z,97.91
2023-11-15T07:11:24.688Z,98.02
2023-11-15T07:12:24.502Z,97.77
2023-11-15T07:13:24.488Z,97.87
2023-11-15T07:14:24.468Z,97.87
2023-11-15T07:15:24.460Z,98.02
2023-11-15T07:16:24.510Z,97.77
2023-11-15T07:17:24.498Z,97.97
2023-11-15T07:18:27.300Z,98.18
2023-11-15T07:19:24.417Z,98.38
2023-11-15T07:23:32.652Z,98.38
2023-11-15T07:24:31.729Z,98.53
2023-11-15T07:25:31.709Z,98.83
2023-11-15T07:26:38.668Z,98.63
2023-11-15T07:27:34.036Z,98.94
2023-11-15T07:28:31.726Z,99.25
2023-11-15T07:29:31.683Z,99.35
2023-11-15T07:30:31.673Z,99.45
2023-11-15T07:32:49.804Z,99.76
2023-11-15T07:35:01.891Z,99.86
2023-11-15T07:38:20.517Z,99.86
2023-11-15T07:38:27.072Z,99.86
2023-11-15T07:38:33.418Z,99.76
2023-11-15T07:45:14.242Z,99.41
2023-11-15T07:46:46.279Z,99.45
2023-11-15T08:02:55.466Z,98.18
2023-11-15T08:03:35.508Z,98.13
2023-11-15T08:04:33.758Z,97.92
2023-11-15T08:09:09.132Z,97.52
2023-11-15T08:09:14.511Z,97.62
2023-11-15T08:10:14.775Z,97.52
2023-11-15T08:11:38.057Z,97.31
2023-11-15T08:14:34.915Z,97.52
2023-11-15T08:15:26.338Z,97.52
2023-11-15T11:17:27.777Z,94.56
2023-11-15T11:18:07.266Z,93.65
2023-11-15T11:19:07.086Z,93.74
2023-11-15T11:20:08.367Z,93.33
2023-11-15T11:21:10.908Z,93.03
2023-11-15T11:22:07.178Z,93.50
2023-11-15T11:23:34.792Z,93.24
2023-11-15T11:24:26.895Z,93.95
2023-11-15T11:25:51.859Z,94.06
2023-11-15T11:26:07.244Z,93.95
2023-11-15T11:27:07.027Z,94.56
2023-11-15T11:31:43.578Z,93.85
2023-11-15T11:50:34.002Z,90.39
2023-11-15T11:56:41.494Z,90.49
2023-11-15T12:21:29.888Z,88.55
2023-11-15T12:23:31.341Z,88.55
2023-11-15T12:35:44.240Z,88.96
